Aérodrome :
LOGIN :

S'inscrire | Disclaimer

   EN    FR    IT 

 










Légende :    VFR   VFR Marginal   IFR   IFR Intensif   IFR Très Intensif
Visi : 
Plafond : 
>= 8 km
>= 3000ft
5 à 8 km
1000 à 3000 ft
1500m à 5 km
500 à 1000 ft
800 à 1500m
200 à 500 ft
< 800m
< 200 ft
Symboles :   Orages  Brouillard  Fortes neiges  Fortes précipitations  Vent > 20 kt
SIGMETs :   Divers  Orages  Givrage  Turbulence  Onde Orograph.  Cendres Volcan.






- Altitude de l'aérodrome : 238 ft
- Code IATA : FAB


EGLF - Farnborough

DERNIER METAR :
  • 281920Z AUTO 08011KT 9999 NCD 17/02 Q1031

METARs EXPIRÉS :
  • 281850Z AUTO 08012KT 9999 NCD 18/02 Q1031
  • 281820Z AUTO 07012KT 9999 NCD 19/03 Q1030
  • 281750Z AUTO 09012KT 060V120 9999 NCD 20/02 Q1030
  • 281720Z AUTO 08014KT 9999 NCD 20/02 Q1031
  • 281650Z AUTO 09013KT 9999 NCD 21/03 Q1031

TAF TAF EGLF
Valide du 28 à 15h jusqu'au 28 à 23h UTC


281357Z 2815/2823 08008KT CAVOK
ATIS : +44 09063 800 400 (*282)



MET'MAP, la Météo Aéronautique d'un coup d'oeil ! - Copyright ORBIFLY Décembre 2007 - Disclaimer

ORBIFLY MET'MAP TEAM :

Programmation & Développement : Alexandra Zaïnal
Sur une idée originale de : Baudouin d'Aumeries
Assistance à la programmation : Marc-Olivier Méhu
Soutien technique & logistique : Manuel Goepfert

Contact : metmap@orbifly.com




SOURCES & CREDITS :

   NOAA